sensor_id;sensor_type;location;lat;lon;timestamp;temperature;humidity
21678;DHT22;11000;50.360;7.582;2024-01-25T00:00:08;9.00;99.90
21678;DHT22;11000;50.360;7.582;2024-01-25T00:02:29;8.90;99.90
21678;DHT22;11000;50.360;7.582;2024-01-25T00:04:49;9.00;99.90
21678;DHT22;11000;50.360;7.582;2024-01-25T00:07:10;8.90;99.90
21678;DHT22;11000;50.360;7.582;2024-01-25T00:09:30;9.00;99.90
21678;DHT22;11000;50.360;7.582;2024-01-25T00:11:51;9.00;99.90
21678;DHT22;11000;50.360;7.582;2024-01-25T00:14:12;8.90;99.90
21678;DHT22;11000;50.360;7.582;2024-01-25T00:16:32;8.90;99.90
21678;DHT22;11000;50.360;7.582;2024-01-25T00:18:53;9.00;99.90
21678;DHT22;11000;50.360;7.582;2024-01-25T00:21:13;8.90;99.90
21678;DHT22;11000;50.360;7.582;2024-01-25T00:23:33;9.00;99.90
21678;DHT22;11000;50.360;7.582;2024-01-25T00:25:54;9.00;99.90
21678;DHT22;11000;50.360;7.582;2024-01-25T00:28:19;9.00;99.90
21678;DHT22;11000;50.360;7.582;2024-01-25T00:30:40;9.00;99.90
21678;DHT22;11000;50.360;7.582;2024-01-25T00:33:00;9.10;99.90
21678;DHT22;11000;50.360;7.582;2024-01-25T00:35:22;9.10;99.90
21678;DHT22;11000;50.360;7.582;2024-01-25T00:37:43;9.10;99.90
21678;DHT22;11000;50.360;7.582;2024-01-25T00:40:04;9.10;99.90
21678;DHT22;11000;50.360;7.582;2024-01-25T00:42:24;9.10;99.90
21678;DHT22;11000;50.360;7.582;2024-01-25T00:44:45;9.20;99.90
21678;DHT22;11000;50.360;7.582;2024-01-25T00:47:06;9.10;99.90
21678;DHT22;11000;50.360;7.582;2024-01-25T00:49:27;9.10;99.90
21678;DHT22;11000;50.360;7.582;2024-01-25T00:51:48;9.10;99.90
21678;DHT22;11000;50.360;7.582;2024-01-25T00:54:08;9.10;99.90
21678;DHT22;11000;50.360;7.582;2024-01-25T00:56:29;9.10;99.90
21678;DHT22;11000;50.360;7.582;2024-01-25T00:58:50;9.10;99.90
21678;DHT22;11000;50.360;7.582;2024-01-25T01:01:11;9.10;99.90
21678;DHT22;11000;50.360;7.582;2024-01-25T01:03:32;9.00;99.90
21678;DHT22;11000;50.360;7.582;2024-01-25T01:05:52;9.10;99.90
21678;DHT22;11000;50.360;7.582;2024-01-25T01:08:13;9.00;99.90
21678;DHT22;11000;50.360;7.582;2024-01-25T01:10:34;9.10;99.90
21678;DHT22;11000;50.360;7.582;2024-01-25T01:12:54;9.10;99.90
21678;DHT22;11000;50.360;7.582;2024-01-25T01:15:14;9.10;99.90
21678;DHT22;11000;50.360;7.582;2024-01-25T01:17:35;9.00;99.90
21678;DHT22;11000;50.360;7.582;2024-01-25T01:19:56;9.00;99.90
21678;DHT22;11000;50.360;7.582;2024-01-25T01:22:16;9.00;99.90
21678;DHT22;11000;50.360;7.582;2024-01-25T01:24:36;9.00;99.90
21678;DHT22;11000;50.360;7.582;2024-01-25T01:26:57;9.00;99.90
21678;DHT22;11000;50.360;7.582;2024-01-25T01:29:18;9.00;99.90
21678;DHT22;11000;50.360;7.582;2024-01-25T01:31:39;8.90;99.90
21678;DHT22;11000;50.360;7.582;2024-01-25T01:33:59;8.90;99.90
21678;DHT22;11000;50.360;7.582;2024-01-25T01:36:20;8.80;99.90
21678;DHT22;11000;50.360;7.582;2024-01-25T01:38:41;8.80;99.90
21678;DHT22;11000;50.360;7.582;2024-01-25T01:41:01;8.70;99.90
21678;DHT22;11000;50.360;7.582;2024-01-25T01:43:22;8.70;99.90
21678;DHT22;11000;50.360;7.582;2024-01-25T01:45:43;8.70;99.90
21678;DHT22;11000;50.360;7.582;2024-01-25T01:48:04;8.70;99.90
21678;DHT22;11000;50.360;7.582;2024-01-25T01:50:25;8.70;99.90
21678;DHT22;11000;50.360;7.582;2024-01-25T01:52:46;8.70;99.90
21678;DHT22;11000;50.360;7.582;2024-01-25T01:55:08;8.60;99.90
21678;DHT22;11000;50.360;7.582;2024-01-25T01:57:29;8.70;99.90
21678;DHT22;11000;50.360;7.582;2024-01-25T01:59:50;8.70;99.90
21678;DHT22;11000;50.360;7.582;2024-01-25T02:02:10;8.70;99.90
21678;DHT22;11000;50.360;7.582;2024-01-25T02:04:31;8.70;99.90
21678;DHT22;11000;50.360;7.582;2024-01-25T02:06:52;8.70;99.90
21678;DHT22;11000;50.360;7.582;2024-01-25T02:09:13;8.70;99.90
21678;DHT22;11000;50.360;7.582;2024-01-25T02:11:33;8.70;99.90
21678;DHT22;11000;50.360;7.582;2024-01-25T02:13:54;8.70;99.90
21678;DHT22;11000;50.360;7.582;2024-01-25T02:16:14;8.80;99.90
21678;DHT22;11000;50.360;7.582;2024-01-25T02:18:35;8.80;99.90
21678;DHT22;11000;50.360;7.582;2024-01-25T02:20:56;8.80;99.90
21678;DHT22;11000;50.360;7.582;2024-01-25T02:23:16;8.80;99.90
21678;DHT22;11000;50.360;7.582;2024-01-25T02:25:37;8.90;99.90
21678;DHT22;11000;50.360;7.582;2024-01-25T02:27:57;8.90;99.90
21678;DHT22;11000;50.360;7.582;2024-01-25T02:30:18;8.80;99.90
21678;DHT22;11000;50.360;7.582;2024-01-25T02:32:38;8.80;99.90
21678;DHT22;11000;50.360;7.582;2024-01-25T02:34:59;8.80;99.90
21678;DHT22;11000;50.360;7.582;2024-01-25T02:37:20;8.80;99.90
21678;DHT22;11000;50.360;7.582;2024-01-25T02:39:41;8.80;99.90
21678;DHT22;11000;50.360;7.582;2024-01-25T02:42:01;8.80;99.90
21678;DHT22;11000;50.360;7.582;2024-01-25T02:44:22;8.80;99.90
21678;DHT22;11000;50.360;7.582;2024-01-25T02:46:42;8.80;99.90
21678;DHT22;11000;50.360;7.582;2024-01-25T02:49:05;8.80;99.90
21678;DHT22;11000;50.360;7.582;2024-01-25T02:51:25;8.90;99.90
21678;DHT22;11000;50.360;7.582;2024-01-25T02:53:46;8.90;99.90
21678;DHT22;11000;50.360;7.582;2024-01-25T02:56:06;8.90;99.90
21678;DHT22;11000;50.360;7.582;2024-01-25T02:58:27;8.90;99.90
21678;DHT22;11000;50.360;7.582;2024-01-25T03:00:48;8.90;99.90
21678;DHT22;11000;50.360;7.582;2024-01-25T03:03:08;8.90;99.90
21678;DHT22;11000;50.360;7.582;2024-01-25T03:05:29;8.90;99.90
21678;DHT22;11000;50.360;7.582;2024-01-25T03:07:49;8.90;99.90
21678;DHT22;11000;50.360;7.582;2024-01-25T03:10:10;8.90;99.90
21678;DHT22;11000;50.360;7.582;2024-01-25T03:12:30;8.80;99.90
21678;DHT22;11000;50.360;7.582;2024-01-25T03:14:50;8.80;99.90
21678;DHT22;11000;50.360;7.582;2024-01-25T03:17:11;8.80;99.90
21678;DHT22;11000;50.360;7.582;2024-01-25T03:19:33;8.90;99.90
21678;DHT22;11000;50.360;7.582;2024-01-25T03:21:53;9.00;99.90
21678;DHT22;11000;50.360;7.582;2024-01-25T03:24:16;9.00;99.90
21678;DHT22;11000;50.360;7.582;2024-01-25T03:26:37;9.10;99.90
21678;DHT22;11000;50.360;7.582;2024-01-25T03:28:58;9.20;99.90
21678;DHT22;11000;50.360;7.582;2024-01-25T03:31:18;9.20;99.90
21678;DHT22;11000;50.360;7.582;2024-01-25T03:33:38;9.20;99.90
21678;DHT22;11000;50.360;7.582;2024-01-25T03:36:03;9.20;99.90
21678;DHT22;11000;50.360;7.582;2024-01-25T03:38:23;9.20;99.90
21678;DHT22;11000;50.360;7.582;2024-01-25T03:40:44;9.20;99.90
21678;DHT22;11000;50.360;7.582;2024-01-25T03:43:04;9.30;99.90
21678;DHT22;11000;50.360;7.582;2024-01-25T03:45:25;9.30;99.90
21678;DHT22;11000;50.360;7.582;2024-01-25T03:47:45;9.30;99.90
21678;DHT22;11000;50.360;7.582;2024-01-25T03:50:06;9.30;99.90
21678;DHT22;11000;50.360;7.582;2024-01-25T03:52:27;9.30;99.90
21678;DHT22;11000;50.360;7.582;2024-01-25T03:54:50;9.30;99.90
21678;DHT22;11000;50.360;7.582;2024-01-25T03:57:10;9.20;99.90
21678;DHT22;11000;50.360;7.582;2024-01-25T03:59:31;9.30;99.90
21678;DHT22;11000;50.360;7.582;2024-01-25T04:01:51;9.30;99.90
21678;DHT22;11000;50.360;7.582;2024-01-25T04:04:14;9.30;99.90
21678;DHT22;11000;50.360;7.582;2024-01-25T04:06:35;9.30;99.90
21678;DHT22;11000;50.360;7.582;2024-01-25T04:08:56;9.20;99.90
21678;DHT22;11000;50.360;7.582;2024-01-25T04:11:16;9.30;99.90
21678;DHT22;11000;50.360;7.582;2024-01-25T04:13:37;9.30;99.90
21678;DHT22;11000;50.360;7.582;2024-01-25T04:15:57;9.20;99.90
21678;DHT22;11000;50.360;7.582;2024-01-25T04:18:18;9.20;99.90
21678;DHT22;11000;50.360;7.582;2024-01-25T04:20:39;9.20;99.90
21678;DHT22;11000;50.360;7.582;2024-01-25T04:22:59;9.10;99.90
21678;DHT22;11000;50.360;7.582;2024-01-25T04:25:20;9.00;99.90
21678;DHT22;11000;50.360;7.582;2024-01-25T04:27:40;9.00;99.90
21678;DHT22;11000;50.360;7.582;2024-01-25T04:30:02;8.90;99.90
21678;DHT22;11000;50.360;7.582;2024-01-25T04:32:24;8.90;99.90
21678;DHT22;11000;50.360;7.582;2024-01-25T04:34:44;8.80;99.90
21678;DHT22;11000;50.360;7.582;2024-01-25T04:37:07;8.80;99.90
21678;DHT22;11000;50.360;7.582;2024-01-25T04:39:28;8.80;99.90
21678;DHT22;11000;50.360;7.582;2024-01-25T04:41:48;8.80;99.90
21678;DHT22;11000;50.360;7.582;2024-01-25T04:44:09;8.80;99.90
21678;DHT22;11000;50.360;7.582;2024-01-25T04:46:29;8.80;99.90
21678;DHT22;11000;50.360;7.582;2024-01-25T04:48:55;8.80;99.90
21678;DHT22;11000;50.360;7.582;2024-01-25T04:51:19;8.90;99.90
21678;DHT22;11000;50.360;7.582;2024-01-25T04:53:42;8.90;99.90
21678;DHT22;11000;50.360;7.582;2024-01-25T04:56:03;9.00;99.90
21678;DHT22;11000;50.360;7.582;2024-01-25T04:58:23;8.90;99.90
21678;DHT22;11000;50.360;7.582;2024-01-25T05:00:44;9.00;99.90
21678;DHT22;11000;50.360;7.582;2024-01-25T05:03:05;9.00;99.90
21678;DHT22;11000;50.360;7.582;2024-01-25T05:05:25;8.90;99.90
21678;DHT22;11000;50.360;7.582;2024-01-25T05:07:46;9.00;99.90
21678;DHT22;11000;50.360;7.582;2024-01-25T05:10:07;8.90;99.90
21678;DHT22;11000;50.360;7.582;2024-01-25T05:12:28;8.90;99.90
21678;DHT22;11000;50.360;7.582;2024-01-25T05:14:48;8.90;99.90
21678;DHT22;11000;50.360;7.582;2024-01-25T05:17:09;8.90;99.90
21678;DHT22;11000;50.360;7.582;2024-01-25T05:19:29;8.90;99.90
21678;DHT22;11000;50.360;7.582;2024-01-25T05:21:50;8.90;99.90
21678;DHT22;11000;50.360;7.582;2024-01-25T05:24:10;8.90;99.90
21678;DHT22;11000;50.360;7.582;2024-01-25T05:26:31;8.80;99.90
21678;DHT22;11000;50.360;7.582;2024-01-25T05:28:51;8.70;99.90
21678;DHT22;11000;50.360;7.582;2024-01-25T05:31:12;8.70;99.90
21678;DHT22;11000;50.360;7.582;2024-01-25T05:33:33;8.70;99.90
21678;DHT22;11000;50.360;7.582;2024-01-25T05:35:53;8.60;99.90
21678;DHT22;11000;50.360;7.582;2024-01-25T05:38:14;8.60;99.90
21678;DHT22;11000;50.360;7.582;2024-01-25T05:40:34;8.60;99.90
21678;DHT22;11000;50.360;7.582;2024-01-25T05:42:55;8.60;99.90
21678;DHT22;11000;50.360;7.582;2024-01-25T05:45:15;8.60;99.90
21678;DHT22;11000;50.360;7.582;2024-01-25T05:47:36;8.60;99.90
21678;DHT22;11000;50.360;7.582;2024-01-25T05:49:57;8.60;99.90
21678;DHT22;11000;50.360;7.582;2024-01-25T05:52:17;8.60;99.90
21678;DHT22;11000;50.360;7.582;2024-01-25T05:54:38;8.60;99.90
21678;DHT22;11000;50.360;7.582;2024-01-25T05:56:58;8.50;99.90
21678;DHT22;11000;50.360;7.582;2024-01-25T05:59:19;8.50;99.90
21678;DHT22;11000;50.360;7.582;2024-01-25T06:01:39;8.40;99.90
21678;DHT22;11000;50.360;7.582;2024-01-25T06:04:00;8.40;99.90
21678;DHT22;11000;50.360;7.582;2024-01-25T06:06:20;8.40;99.90
21678;DHT22;11000;50.360;7.582;2024-01-25T06:08:41;8.40;99.90
21678;DHT22;11000;50.360;7.582;2024-01-25T06:11:01;8.30;99.90
21678;DHT22;11000;50.360;7.582;2024-01-25T06:13:22;8.20;99.90
21678;DHT22;11000;50.360;7.582;2024-01-25T06:15:42;8.20;99.90
21678;DHT22;11000;50.360;7.582;2024-01-25T06:18:03;8.20;99.90
21678;DHT22;11000;50.360;7.582;2024-01-25T06:20:23;8.20;99.90
21678;DHT22;11000;50.360;7.582;2024-01-25T06:22:44;8.20;99.90
21678;DHT22;11000;50.360;7.582;2024-01-25T06:25:05;8.10;99.90
21678;DHT22;11000;50.360;7.582;2024-01-25T06:27:25;8.10;99.90
21678;DHT22;11000;50.360;7.582;2024-01-25T06:29:46;8.10;99.90
21678;DHT22;11000;50.360;7.582;2024-01-25T06:32:07;8.10;99.90
21678;DHT22;11000;50.360;7.582;2024-01-25T06:34:27;8.00;99.90
21678;DHT22;11000;50.360;7.582;2024-01-25T06:36:48;8.00;99.90
21678;DHT22;11000;50.360;7.582;2024-01-25T06:39:08;8.00;99.90
21678;DHT22;11000;50.360;7.582;2024-01-25T06:41:29;7.90;99.90
21678;DHT22;11000;50.360;7.582;2024-01-25T06:43:49;7.90;99.90
21678;DHT22;11000;50.360;7.582;2024-01-25T06:46:10;7.90;99.90
21678;DHT22;11000;50.360;7.582;2024-01-25T06:48:30;7.90;99.90
21678;DHT22;11000;50.360;7.582;2024-01-25T06:50:51;7.90;99.90
21678;DHT22;11000;50.360;7.582;2024-01-25T06:53:11;7.80;99.90
21678;DHT22;11000;50.360;7.582;2024-01-25T06:55:32;7.80;99.90
21678;DHT22;11000;50.360;7.582;2024-01-25T06:57:52;7.80;99.90
21678;DHT22;11000;50.360;7.582;2024-01-25T07:00:13;7.80;99.90
21678;DHT22;11000;50.360;7.582;2024-01-25T07:02:36;7.70;99.90
21678;DHT22;11000;50.360;7.582;2024-01-25T07:04:56;7.60;99.90
21678;DHT22;11000;50.360;7.582;2024-01-25T07:07:17;7.60;99.90
21678;DHT22;11000;50.360;7.582;2024-01-25T07:09:37;7.60;99.90
21678;DHT22;11000;50.360;7.582;2024-01-25T07:11:58;7.60;99.90
21678;DHT22;11000;50.360;7.582;2024-01-25T07:14:18;7.50;99.90
21678;DHT22;11000;50.360;7.582;2024-01-25T07:16:39;7.50;99.90
21678;DHT22;11000;50.360;7.582;2024-01-25T07:18:59;7.50;99.90
21678;DHT22;11000;50.360;7.582;2024-01-25T07:21:20;7.50;99.90
21678;DHT22;11000;50.360;7.582;2024-01-25T07:23:40;7.50;99.90
21678;DHT22;11000;50.360;7.582;2024-01-25T07:26:01;7.50;99.90
21678;DHT22;11000;50.360;7.582;2024-01-25T07:28:21;7.50;99.90
21678;DHT22;11000;50.360;7.582;2024-01-25T07:30:42;7.50;99.90
21678;DHT22;11000;50.360;7.582;2024-01-25T07:33:02;7.50;99.90
21678;DHT22;11000;50.360;7.582;2024-01-25T07:35:23;7.50;99.90
21678;DHT22;11000;50.360;7.582;2024-01-25T07:37:43;7.50;99.90
21678;DHT22;11000;50.360;7.582;2024-01-25T07:40:04;7.50;99.90
21678;DHT22;11000;50.360;7.582;2024-01-25T07:42:25;7.50;99.90
21678;DHT22;11000;50.360;7.582;2024-01-25T07:44:45;7.50;99.90
21678;DHT22;11000;50.360;7.582;2024-01-25T07:47:06;7.40;99.90
21678;DHT22;11000;50.360;7.582;2024-01-25T07:49:26;7.40;99.90
21678;DHT22;11000;50.360;7.582;2024-01-25T07:51:47;7.40;99.90
21678;DHT22;11000;50.360;7.582;2024-01-25T07:54:07;7.40;99.90
21678;DHT22;11000;50.360;7.582;2024-01-25T07:56:28;7.30;99.90
21678;DHT22;11000;50.360;7.582;2024-01-25T07:58:49;7.30;99.90
21678;DHT22;11000;50.360;7.582;2024-01-25T08:01:10;7.30;99.90
21678;DHT22;11000;50.360;7.582;2024-01-25T08:03:30;7.30;99.90
21678;DHT22;11000;50.360;7.582;2024-01-25T08:05:51;7.20;99.90
21678;DHT22;11000;50.360;7.582;2024-01-25T08:08:11;7.20;99.90
21678;DHT22;11000;50.360;7.582;2024-01-25T08:10:32;7.30;99.90
21678;DHT22;11000;50.360;7.582;2024-01-25T08:12:53;7.30;99.90
21678;DHT22;11000;50.360;7.582;2024-01-25T08:15:14;7.30;99.90
21678;DHT22;11000;50.360;7.582;2024-01-25T08:17:34;7.20;99.90
21678;DHT22;11000;50.360;7.582;2024-01-25T08:19:56;7.20;99.90
21678;DHT22;11000;50.360;7.582;2024-01-25T08:22:16;7.20;99.90
21678;DHT22;11000;50.360;7.582;2024-01-25T08:24:39;7.20;99.90
21678;DHT22;11000;50.360;7.582;2024-01-25T08:26:59;7.20;99.90
21678;DHT22;11000;50.360;7.582;2024-01-25T08:29:20;7.30;99.90
21678;DHT22;11000;50.360;7.582;2024-01-25T08:31:41;7.20;99.90
21678;DHT22;11000;50.360;7.582;2024-01-25T08:34:02;7.30;99.90
21678;DHT22;11000;50.360;7.582;2024-01-25T08:36:22;7.30;99.90
21678;DHT22;11000;50.360;7.582;2024-01-25T08:38:43;7.30;99.90
21678;DHT22;11000;50.360;7.582;2024-01-25T08:41:03;7.30;99.90
21678;DHT22;11000;50.360;7.582;2024-01-25T08:43:24;7.40;99.90
21678;DHT22;11000;50.360;7.582;2024-01-25T08:45:45;7.40;99.90
21678;DHT22;11000;50.360;7.582;2024-01-25T08:48:06;7.40;99.90
21678;DHT22;11000;50.360;7.582;2024-01-25T08:50:29;7.50;99.90
21678;DHT22;11000;50.360;7.582;2024-01-25T08:52:49;7.40;99.90
21678;DHT22;11000;50.360;7.582;2024-01-25T08:55:10;7.50;99.90
21678;DHT22;11000;50.360;7.582;2024-01-25T08:57:31;7.50;99.90
21678;DHT22;11000;50.360;7.582;2024-01-25T08:59:51;7.60;99.90
21678;DHT22;11000;50.360;7.582;2024-01-25T09:02:13;7.60;99.90
21678;DHT22;11000;50.360;7.582;2024-01-25T09:04:34;7.70;99.90
21678;DHT22;11000;50.360;7.582;2024-01-25T09:06:54;7.70;99.90
21678;DHT22;11000;50.360;7.582;2024-01-25T09:09:15;7.70;99.90
21678;DHT22;11000;50.360;7.582;2024-01-25T09:11:35;7.70;99.90
21678;DHT22;11000;50.360;7.582;2024-01-25T09:13:56;7.70;99.90
21678;DHT22;11000;50.360;7.582;2024-01-25T09:16:16;7.70;99.90
21678;DHT22;11000;50.360;7.582;2024-01-25T09:18:37;7.70;99.90
21678;DHT22;11000;50.360;7.582;2024-01-25T09:20:57;7.80;99.90
21678;DHT22;11000;50.360;7.582;2024-01-25T09:23:18;7.80;99.90
21678;DHT22;11000;50.360;7.582;2024-01-25T09:25:38;7.80;99.90
21678;DHT22;11000;50.360;7.582;2024-01-25T09:27:59;7.90;99.90
21678;DHT22;11000;50.360;7.582;2024-01-25T09:30:20;7.90;99.90
21678;DHT22;11000;50.360;7.582;2024-01-25T09:32:40;7.90;99.90
21678;DHT22;11000;50.360;7.582;2024-01-25T09:35:01;7.90;99.90
21678;DHT22;11000;50.360;7.582;2024-01-25T09:37:21;8.00;99.90
21678;DHT22;11000;50.360;7.582;2024-01-25T09:39:43;8.00;99.90
21678;DHT22;11000;50.360;7.582;2024-01-25T09:42:04;8.10;99.90
21678;DHT22;11000;50.360;7.582;2024-01-25T09:44:25;8.10;99.90
21678;DHT22;11000;50.360;7.582;2024-01-25T09:46:45;8.10;99.90
21678;DHT22;11000;50.360;7.582;2024-01-25T09:49:06;8.20;99.90
21678;DHT22;11000;50.360;7.582;2024-01-25T09:51:40;8.20;99.90
21678;DHT22;11000;50.360;7.582;2024-01-25T09:54:01;8.20;99.90
21678;DHT22;11000;50.360;7.582;2024-01-25T09:56:26;8.30;99.90
21678;DHT22;11000;50.360;7.582;2024-01-25T09:58:50;8.30;99.90
21678;DHT22;11000;50.360;7.582;2024-01-25T10:01:12;8.40;99.90
21678;DHT22;11000;50.360;7.582;2024-01-25T10:03:32;8.40;99.90
21678;DHT22;11000;50.360;7.582;2024-01-25T10:05:55;8.50;99.90
21678;DHT22;11000;50.360;7.582;2024-01-25T10:08:15;8.60;99.90
21678;DHT22;11000;50.360;7.582;2024-01-25T10:10:36;8.60;99.90
21678;DHT22;11000;50.360;7.582;2024-01-25T10:12:56;8.60;99.90
21678;DHT22;11000;50.360;7.582;2024-01-25T10:15:17;8.70;99.90
21678;DHT22;11000;50.360;7.582;2024-01-25T10:17:38;8.80;99.90
21678;DHT22;11000;50.360;7.582;2024-01-25T10:19:59;8.80;99.90
21678;DHT22;11000;50.360;7.582;2024-01-25T10:22:20;8.90;99.90
21678;DHT22;11000;50.360;7.582;2024-01-25T10:24:40;9.00;99.90
21678;DHT22;11000;50.360;7.582;2024-01-25T10:27:01;9.00;99.90
21678;DHT22;11000;50.360;7.582;2024-01-25T10:29:22;9.10;99.90
21678;DHT22;11000;50.360;7.582;2024-01-25T10:31:45;9.10;99.90
21678;DHT22;11000;50.360;7.582;2024-01-25T10:34:08;9.20;99.90
21678;DHT22;11000;50.360;7.582;2024-01-25T10:36:31;9.20;99.90
21678;DHT22;11000;50.360;7.582;2024-01-25T10:38:53;9.20;99.90
21678;DHT22;11000;50.360;7.582;2024-01-25T10:41:14;9.20;99.90
21678;DHT22;11000;50.360;7.582;2024-01-25T10:43:35;9.20;99.90
21678;DHT22;11000;50.360;7.582;2024-01-25T10:45:57;9.40;99.90
21678;DHT22;11000;50.360;7.582;2024-01-25T10:48:18;9.30;99.90
21678;DHT22;11000;50.360;7.582;2024-01-25T10:50:38;9.40;99.90
21678;DHT22;11000;50.360;7.582;2024-01-25T10:53:00;9.40;99.90
21678;DHT22;11000;50.360;7.582;2024-01-25T10:55:22;9.50;99.90
21678;DHT22;11000;50.360;7.582;2024-01-25T10:57:45;9.50;99.90
21678;DHT22;11000;50.360;7.582;2024-01-25T11:00:07;9.60;99.90
21678;DHT22;11000;50.360;7.582;2024-01-25T11:02:29;9.70;99.90
21678;DHT22;11000;50.360;7.582;2024-01-25T11:04:54;9.70;99.90
21678;DHT22;11000;50.360;7.582;2024-01-25T11:07:15;9.80;99.90
21678;DHT22;11000;50.360;7.582;2024-01-25T11:09:36;9.80;99.90
21678;DHT22;11000;50.360;7.582;2024-01-25T11:11:59;9.80;99.90
21678;DHT22;11000;50.360;7.582;2024-01-25T11:14:20;9.80;99.90
21678;DHT22;11000;50.360;7.582;2024-01-25T11:16:40;9.90;99.90
21678;DHT22;11000;50.360;7.582;2024-01-25T11:19:05;10.00;99.90
21678;DHT22;11000;50.360;7.582;2024-01-25T11:21:37;10.10;99.90
21678;DHT22;11000;50.360;7.582;2024-01-25T11:24:04;10.20;99.90
21678;DHT22;11000;50.360;7.582;2024-01-25T11:26:25;10.30;99.90
21678;DHT22;11000;50.360;7.582;2024-01-25T11:28:46;10.50;99.90
21678;DHT22;11000;50.360;7.582;2024-01-25T11:31:07;10.50;99.90
21678;DHT22;11000;50.360;7.582;2024-01-25T11:33:27;10.50;99.90
21678;DHT22;11000;50.360;7.582;2024-01-25T11:35:55;10.60;99.90
21678;DHT22;11000;50.360;7.582;2024-01-25T11:38:15;10.70;99.90
21678;DHT22;11000;50.360;7.582;2024-01-25T11:40:36;10.70;99.90
21678;DHT22;11000;50.360;7.582;2024-01-25T11:42:56;10.70;99.90
21678;DHT22;11000;50.360;7.582;2024-01-25T11:45:17;10.70;99.90
21678;DHT22;11000;50.360;7.582;2024-01-25T11:47:38;10.80;99.90
21678;DHT22;11000;50.360;7.582;2024-01-25T11:49:59;10.80;99.90
21678;DHT22;11000;50.360;7.582;2024-01-25T11:52:19;10.80;99.90
21678;DHT22;11000;50.360;7.582;2024-01-25T11:54:40;10.80;99.90
21678;DHT22;11000;50.360;7.582;2024-01-25T11:57:00;10.80;99.90
21678;DHT22;11000;50.360;7.582;2024-01-25T11:59:21;10.80;99.90
21678;DHT22;11000;50.360;7.582;2024-01-25T12:01:42;10.80;99.90
21678;DHT22;11000;50.360;7.582;2024-01-25T12:04:02;10.80;99.90
21678;DHT22;11000;50.360;7.582;2024-01-25T12:06:24;10.80;99.90
21678;DHT22;11000;50.360;7.582;2024-01-25T12:08:45;10.80;99.90
21678;DHT22;11000;50.360;7.582;2024-01-25T12:11:09;10.80;99.90
21678;DHT22;11000;50.360;7.582;2024-01-25T12:13:32;10.80;99.90
21678;DHT22;11000;50.360;7.582;2024-01-25T12:15:53;10.90;99.90
21678;DHT22;11000;50.360;7.582;2024-01-25T12:18:16;10.90;99.90
21678;DHT22;11000;50.360;7.582;2024-01-25T12:20:36;10.90;99.90
21678;DHT22;11000;50.360;7.582;2024-01-25T12:22:58;11.00;99.90
21678;DHT22;11000;50.360;7.582;2024-01-25T12:25:19;11.00;99.90
21678;DHT22;11000;50.360;7.582;2024-01-25T12:27:39;11.00;99.90
21678;DHT22;11000;50.360;7.582;2024-01-25T12:30:01;11.00;99.90
21678;DHT22;11000;50.360;7.582;2024-01-25T12:32:22;11.00;99.90
21678;DHT22;11000;50.360;7.582;2024-01-25T12:34:42;11.00;99.90
21678;DHT22;11000;50.360;7.582;2024-01-25T12:37:12;11.00;99.90
21678;DHT22;11000;50.360;7.582;2024-01-25T12:39:33;11.00;99.90
21678;DHT22;11000;50.360;7.582;2024-01-25T12:41:53;11.00;99.90
21678;DHT22;11000;50.360;7.582;2024-01-25T12:44:14;10.90;99.90
21678;DHT22;11000;50.360;7.582;2024-01-25T12:46:34;11.00;99.90
21678;DHT22;11000;50.360;7.582;2024-01-25T12:48:55;10.90;99.90
21678;DHT22;11000;50.360;7.582;2024-01-25T12:51:17;11.00;99.90
21678;DHT22;11000;50.360;7.582;2024-01-25T12:53:37;11.00;99.90
21678;DHT22;11000;50.360;7.582;2024-01-25T12:55:58;11.10;99.90
21678;DHT22;11000;50.360;7.582;2024-01-25T12:58:18;11.10;99.90
21678;DHT22;11000;50.360;7.582;2024-01-25T13:00:39;11.10;99.90
21678;DHT22;11000;50.360;7.582;2024-01-25T13:02:59;11.10;99.90
21678;DHT22;11000;50.360;7.582;2024-01-25T13:05:23;11.10;99.90
21678;DHT22;11000;50.360;7.582;2024-01-25T13:07:44;11.20;99.90
21678;DHT22;11000;50.360;7.582;2024-01-25T13:10:05;11.30;99.90
21678;DHT22;11000;50.360;7.582;2024-01-25T13:12:26;11.50;99.90
21678;DHT22;11000;50.360;7.582;2024-01-25T13:14:46;11.50;99.90
21678;DHT22;11000;50.360;7.582;2024-01-25T13:17:06;11.60;99.90
21678;DHT22;11000;50.360;7.582;2024-01-25T13:19:28;11.50;99.90
21678;DHT22;11000;50.360;7.582;2024-01-25T13:21:48;11.60;99.90
21678;DHT22;11000;50.360;7.582;2024-01-25T13:24:09;11.70;99.90
21678;DHT22;11000;50.360;7.582;2024-01-25T13:26:29;11.70;99.90
21678;DHT22;11000;50.360;7.582;2024-01-25T13:28:50;11.60;99.90
21678;DHT22;11000;50.360;7.582;2024-01-25T13:31:10;11.50;99.90
21678;DHT22;11000;50.360;7.582;2024-01-25T13:33:31;11.50;99.90
21678;DHT22;11000;50.360;7.582;2024-01-25T13:35:51;11.40;99.90
21678;DHT22;11000;50.360;7.582;2024-01-25T13:38:12;11.50;99.90
21678;DHT22;11000;50.360;7.582;2024-01-25T13:40:34;11.40;99.90
21678;DHT22;11000;50.360;7.582;2024-01-25T13:42:55;11.50;99.90
21678;DHT22;11000;50.360;7.582;2024-01-25T13:45:15;11.60;99.90
21678;DHT22;11000;50.360;7.582;2024-01-25T13:47:36;11.60;99.90
21678;DHT22;11000;50.360;7.582;2024-01-25T13:49:57;11.60;99.90
21678;DHT22;11000;50.360;7.582;2024-01-25T13:52:18;11.60;99.90
21678;DHT22;11000;50.360;7.582;2024-01-25T13:54:40;11.70;99.90
21678;DHT22;11000;50.360;7.582;2024-01-25T13:57:00;11.70;99.90
21678;DHT22;11000;50.360;7.582;2024-01-25T13:59:21;11.70;99.90
21678;DHT22;11000;50.360;7.582;2024-01-25T14:01:41;11.80;99.90
21678;DHT22;11000;50.360;7.582;2024-01-25T14:04:02;11.80;99.90
21678;DHT22;11000;50.360;7.582;2024-01-25T14:06:23;11.70;99.90
21678;DHT22;11000;50.360;7.582;2024-01-25T14:08:43;11.60;99.90
21678;DHT22;11000;50.360;7.582;2024-01-25T14:11:04;11.60;99.90
21678;DHT22;11000;50.360;7.582;2024-01-25T14:13:26;11.50;99.90
21678;DHT22;11000;50.360;7.582;2024-01-25T14:15:46;11.50;99.90
21678;DHT22;11000;50.360;7.582;2024-01-25T14:18:07;11.50;99.90
21678;DHT22;11000;50.360;7.582;2024-01-25T14:20:27;11.40;99.90
21678;DHT22;11000;50.360;7.582;2024-01-25T14:22:48;11.30;99.90
21678;DHT22;11000;50.360;7.582;2024-01-25T14:25:09;11.40;99.90
21678;DHT22;11000;50.360;7.582;2024-01-25T14:27:29;11.30;99.90
21678;DHT22;11000;50.360;7.582;2024-01-25T14:29:50;11.30;99.90
21678;DHT22;11000;50.360;7.582;2024-01-25T14:32:10;11.30;99.90
21678;DHT22;11000;50.360;7.582;2024-01-25T14:34:31;11.30;99.90
21678;DHT22;11000;50.360;7.582;2024-01-25T14:36:51;11.20;99.90
21678;DHT22;11000;50.360;7.582;2024-01-25T14:39:12;11.20;99.90
21678;DHT22;11000;50.360;7.582;2024-01-25T14:41:32;11.10;99.90
21678;DHT22;11000;50.360;7.582;2024-01-25T14:43:53;11.20;99.90
21678;DHT22;11000;50.360;7.582;2024-01-25T14:46:14;11.20;99.90
21678;DHT22;11000;50.360;7.582;2024-01-25T14:48:34;11.20;99.90
21678;DHT22;11000;50.360;7.582;2024-01-25T14:50:55;11.30;99.90
21678;DHT22;11000;50.360;7.582;2024-01-25T14:53:15;11.20;99.90
21678;DHT22;11000;50.360;7.582;2024-01-25T14:55:38;11.30;99.90
21678;DHT22;11000;50.360;7.582;2024-01-25T14:57:59;11.30;99.90
21678;DHT22;11000;50.360;7.582;2024-01-25T15:00:19;11.30;99.90